River Falls, Wisconsin
Current Conditions -  °F | °C
As of 6:31 PM on Monday 24 Nov 2014 (Local Time) from K21D Reporting Station
Overcast Overcast  
Wind Chill: -13°   Ceiling: 2200
Heat Index: -6°   Visibility: 10mi
Dew Point: -10°   Wind: 13mph
Humidity: 74%   Direction: 340°NNW
Pressure: 29.72"   Gusts: 21mph
Location:  44.85°N, 92.63°W
Report Text: K21D 250031Z AUTO 34011G18KT 10SM OVC022 M06/M10 A2972 RMK AO2
Loading
Personal Weather Stations






























Interactive Weather Map New forecast layout! Learn more

10-Day Weather Forecast

Advertisements
Track Severe Weather on mobile